sensor_id;sensor_type;location;lat;lon;timestamp;P1;durP1;ratioP1;P2;durP2;ratioP2
10847;SDS011;5477;48.806;9.154;2024-01-07T00:02:19;15.87;;;11.40;;
10847;SDS011;5477;48.806;9.154;2024-01-07T00:04:47;15.90;;;11.80;;
10847;SDS011;5477;48.806;9.154;2024-01-07T00:07:15;16.00;;;11.47;;
10847;SDS011;5477;48.806;9.154;2024-01-07T00:09:43;16.30;;;11.27;;
10847;SDS011;5477;48.806;9.154;2024-01-07T00:12:11;14.10;;;11.07;;
10847;SDS011;5477;48.806;9.154;2024-01-07T00:14:39;14.43;;;10.83;;
10847;SDS011;5477;48.806;9.154;2024-01-07T00:17:07;13.53;;;10.57;;
10847;SDS011;5477;48.806;9.154;2024-01-07T00:19:37;13.33;;;10.10;;
10847;SDS011;5477;48.806;9.154;2024-01-07T00:22:07;13.03;;;10.03;;
10847;SDS011;5477;48.806;9.154;2024-01-07T00:24:35;13.93;;;10.33;;
10847;SDS011;5477;48.806;9.154;2024-01-07T00:27:03;13.93;;;11.07;;
10847;SDS011;5477;48.806;9.154;2024-01-07T00:29:31;15.60;;;11.53;;
10847;SDS011;5477;48.806;9.154;2024-01-07T00:32:01;13.33;;;10.43;;
10847;SDS011;5477;48.806;9.154;2024-01-07T00:34:29;15.57;;;11.83;;
10847;SDS011;5477;48.806;9.154;2024-01-07T00:36:58;15.40;;;11.43;;
10847;SDS011;5477;48.806;9.154;2024-01-07T00:39:26;14.83;;;11.57;;
10847;SDS011;5477;48.806;9.154;2024-01-07T00:41:55;14.60;;;12.03;;
10847;SDS011;5477;48.806;9.154;2024-01-07T00:44:22;15.47;;;11.03;;
10847;SDS011;5477;48.806;9.154;2024-01-07T00:46:50;15.90;;;11.20;;
10847;SDS011;5477;48.806;9.154;2024-01-07T00:49:18;15.83;;;11.67;;
10847;SDS011;5477;48.806;9.154;2024-01-07T00:51:47;15.57;;;11.17;;
10847;SDS011;5477;48.806;9.154;2024-01-07T00:54:16;15.90;;;12.40;;
10847;SDS011;5477;48.806;9.154;2024-01-07T00:56:44;15.67;;;12.17;;
10847;SDS011;5477;48.806;9.154;2024-01-07T00:59:13;16.43;;;12.07;;
10847;SDS011;5477;48.806;9.154;2024-01-07T01:01:41;17.60;;;12.10;;
10847;SDS011;5477;48.806;9.154;2024-01-07T01:04:09;17.40;;;12.47;;
10847;SDS011;5477;48.806;9.154;2024-01-07T01:06:37;19.57;;;13.43;;
10847;SDS011;5477;48.806;9.154;2024-01-07T01:09:05;18.00;;;14.00;;
10847;SDS011;5477;48.806;9.154;2024-01-07T01:11:35;20.73;;;14.00;;
10847;SDS011;5477;48.806;9.154;2024-01-07T01:14:03;21.27;;;13.37;;
10847;SDS011;5477;48.806;9.154;2024-01-07T01:16:31;20.93;;;14.17;;
10847;SDS011;5477;48.806;9.154;2024-01-07T01:18:58;21.37;;;14.47;;
10847;SDS011;5477;48.806;9.154;2024-01-07T01:21:27;20.87;;;14.60;;
10847;SDS011;5477;48.806;9.154;2024-01-07T01:23:55;23.80;;;15.17;;
10847;SDS011;5477;48.806;9.154;2024-01-07T01:26:23;24.37;;;14.60;;
10847;SDS011;5477;48.806;9.154;2024-01-07T01:28:53;24.73;;;15.53;;
10847;SDS011;5477;48.806;9.154;2024-01-07T01:31:21;24.80;;;15.53;;
10847;SDS011;5477;48.806;9.154;2024-01-07T01:33:49;26.50;;;16.10;;
10847;SDS011;5477;48.806;9.154;2024-01-07T01:36:18;26.87;;;15.60;;
10847;SDS011;5477;48.806;9.154;2024-01-07T01:38:46;27.23;;;16.40;;
10847;SDS011;5477;48.806;9.154;2024-01-07T01:41:15;26.57;;;15.63;;
10847;SDS011;5477;48.806;9.154;2024-01-07T01:43:43;29.70;;;16.70;;
10847;SDS011;5477;48.806;9.154;2024-01-07T01:46:12;27.53;;;16.97;;
10847;SDS011;5477;48.806;9.154;2024-01-07T01:48:41;27.77;;;15.23;;
10847;SDS011;5477;48.806;9.154;2024-01-07T01:51:10;27.53;;;15.80;;
10847;SDS011;5477;48.806;9.154;2024-01-07T01:53:39;32.40;;;16.70;;
10847;SDS011;5477;48.806;9.154;2024-01-07T01:56:07;27.40;;;16.53;;
10847;SDS011;5477;48.806;9.154;2024-01-07T01:58:36;26.63;;;15.80;;
10847;SDS011;5477;48.806;9.154;2024-01-07T02:01:04;32.47;;;16.70;;
10847;SDS011;5477;48.806;9.154;2024-01-07T02:03:34;26.10;;;16.43;;
10847;SDS011;5477;48.806;9.154;2024-01-07T02:06:02;26.70;;;16.40;;
10847;SDS011;5477;48.806;9.154;2024-01-07T02:08:30;27.37;;;16.10;;
10847;SDS011;5477;48.806;9.154;2024-01-07T02:11:00;23.50;;;15.80;;
10847;SDS011;5477;48.806;9.154;2024-01-07T02:13:42;29.30;;;17.40;;
10847;SDS011;5477;48.806;9.154;2024-01-07T02:16:10;25.67;;;15.53;;
10847;SDS011;5477;48.806;9.154;2024-01-07T02:18:41;27.50;;;15.87;;
10847;SDS011;5477;48.806;9.154;2024-01-07T02:21:10;26.10;;;15.90;;
10847;SDS011;5477;48.806;9.154;2024-01-07T02:23:40;27.83;;;15.33;;
10847;SDS011;5477;48.806;9.154;2024-01-07T02:26:09;23.70;;;14.70;;
10847;SDS011;5477;48.806;9.154;2024-01-07T02:28:37;23.00;;;15.13;;
10847;SDS011;5477;48.806;9.154;2024-01-07T02:31:05;26.13;;;15.77;;
10847;SDS011;5477;48.806;9.154;2024-01-07T02:33:33;22.23;;;14.43;;
10847;SDS011;5477;48.806;9.154;2024-01-07T02:36:02;23.63;;;15.40;;
10847;SDS011;5477;48.806;9.154;2024-01-07T02:38:30;20.83;;;14.20;;
10847;SDS011;5477;48.806;9.154;2024-01-07T02:40:58;21.30;;;14.63;;
10847;SDS011;5477;48.806;9.154;2024-01-07T02:43:28;26.37;;;13.93;;
10847;SDS011;5477;48.806;9.154;2024-01-07T02:45:55;23.30;;;13.97;;
10847;SDS011;5477;48.806;9.154;2024-01-07T02:48:24;21.97;;;14.13;;
10847;SDS011;5477;48.806;9.154;2024-01-07T02:50:52;23.57;;;14.23;;
10847;SDS011;5477;48.806;9.154;2024-01-07T02:53:20;21.37;;;13.63;;
10847;SDS011;5477;48.806;9.154;2024-01-07T02:55:48;19.50;;;13.53;;
10847;SDS011;5477;48.806;9.154;2024-01-07T02:58:16;23.90;;;13.53;;
10847;SDS011;5477;48.806;9.154;2024-01-07T03:00:45;17.93;;;13.53;;
10847;SDS011;5477;48.806;9.154;2024-01-07T03:03:13;20.70;;;13.83;;
10847;SDS011;5477;48.806;9.154;2024-01-07T03:05:41;20.17;;;11.80;;
10847;SDS011;5477;48.806;9.154;2024-01-07T03:08:09;19.23;;;13.30;;
10847;SDS011;5477;48.806;9.154;2024-01-07T03:10:37;16.17;;;12.17;;
10847;SDS011;5477;48.806;9.154;2024-01-07T03:13:05;16.30;;;11.57;;
10847;SDS011;5477;48.806;9.154;2024-01-07T03:15:34;18.80;;;12.70;;
10847;SDS011;5477;48.806;9.154;2024-01-07T03:18:03;16.87;;;11.17;;
10847;SDS011;5477;48.806;9.154;2024-01-07T03:20:32;18.83;;;11.97;;
10847;SDS011;5477;48.806;9.154;2024-01-07T03:23:00;16.87;;;12.20;;
10847;SDS011;5477;48.806;9.154;2024-01-07T03:25:28;19.93;;;12.80;;
10847;SDS011;5477;48.806;9.154;2024-01-07T03:27:56;16.80;;;11.63;;
10847;SDS011;5477;48.806;9.154;2024-01-07T03:30:24;18.33;;;12.63;;
10847;SDS011;5477;48.806;9.154;2024-01-07T03:32:52;17.37;;;11.50;;
10847;SDS011;5477;48.806;9.154;2024-01-07T03:35:22;18.20;;;11.93;;
10847;SDS011;5477;48.806;9.154;2024-01-07T03:37:50;15.53;;;12.00;;
10847;SDS011;5477;48.806;9.154;2024-01-07T03:40:18;16.63;;;11.77;;
10847;SDS011;5477;48.806;9.154;2024-01-07T03:42:46;17.90;;;11.87;;
10847;SDS011;5477;48.806;9.154;2024-01-07T03:45:14;16.90;;;12.47;;
10847;SDS011;5477;48.806;9.154;2024-01-07T03:47:42;20.93;;;12.63;;
10847;SDS011;5477;48.806;9.154;2024-01-07T03:50:10;17.60;;;12.23;;
10847;SDS011;5477;48.806;9.154;2024-01-07T03:52:40;19.47;;;12.60;;
10847;SDS011;5477;48.806;9.154;2024-01-07T03:55:08;18.57;;;12.20;;
10847;SDS011;5477;48.806;9.154;2024-01-07T03:57:36;16.83;;;11.27;;
10847;SDS011;5477;48.806;9.154;2024-01-07T04:00:05;16.43;;;11.73;;
10847;SDS011;5477;48.806;9.154;2024-01-07T04:02:34;17.20;;;11.97;;
10847;SDS011;5477;48.806;9.154;2024-01-07T04:05:02;20.00;;;12.17;;
10847;SDS011;5477;48.806;9.154;2024-01-07T04:07:31;16.50;;;11.40;;
10847;SDS011;5477;48.806;9.154;2024-01-07T04:10:00;15.63;;;11.23;;
10847;SDS011;5477;48.806;9.154;2024-01-07T04:12:29;17.33;;;11.83;;
10847;SDS011;5477;48.806;9.154;2024-01-07T04:14:57;17.10;;;11.87;;
10847;SDS011;5477;48.806;9.154;2024-01-07T04:17:25;15.17;;;11.50;;
10847;SDS011;5477;48.806;9.154;2024-01-07T04:19:53;16.70;;;11.27;;
10847;SDS011;5477;48.806;9.154;2024-01-07T04:22:22;16.57;;;11.43;;
10847;SDS011;5477;48.806;9.154;2024-01-07T04:24:50;17.20;;;12.03;;
10847;SDS011;5477;48.806;9.154;2024-01-07T04:27:19;17.63;;;11.73;;
10847;SDS011;5477;48.806;9.154;2024-01-07T04:29:47;17.23;;;11.70;;
10847;SDS011;5477;48.806;9.154;2024-01-07T04:32:15;16.97;;;11.37;;
10847;SDS011;5477;48.806;9.154;2024-01-07T04:34:43;16.03;;;11.17;;
10847;SDS011;5477;48.806;9.154;2024-01-07T04:37:11;17.47;;;11.53;;
10847;SDS011;5477;48.806;9.154;2024-01-07T04:39:40;15.93;;;10.93;;
10847;SDS011;5477;48.806;9.154;2024-01-07T04:42:08;16.27;;;11.53;;
10847;SDS011;5477;48.806;9.154;2024-01-07T04:44:40;14.97;;;10.87;;
10847;SDS011;5477;48.806;9.154;2024-01-07T04:47:22;17.30;;;11.47;;
10847;SDS011;5477;48.806;9.154;2024-01-07T04:49:54;17.33;;;11.20;;
10847;SDS011;5477;48.806;9.154;2024-01-07T04:52:23;14.97;;;10.43;;
10847;SDS011;5477;48.806;9.154;2024-01-07T04:54:52;15.57;;;9.93;;
10847;SDS011;5477;48.806;9.154;2024-01-07T04:57:20;16.00;;;9.70;;
10847;SDS011;5477;48.806;9.154;2024-01-07T04:59:50;14.23;;;10.07;;
10847;SDS011;5477;48.806;9.154;2024-01-07T05:02:19;14.87;;;10.33;;
10847;SDS011;5477;48.806;9.154;2024-01-07T05:04:47;14.23;;;9.80;;
10847;SDS011;5477;48.806;9.154;2024-01-07T05:07:15;15.37;;;10.23;;
10847;SDS011;5477;48.806;9.154;2024-01-07T05:09:43;16.23;;;10.23;;
10847;SDS011;5477;48.806;9.154;2024-01-07T05:12:11;16.20;;;10.37;;
10847;SDS011;5477;48.806;9.154;2024-01-07T05:14:40;14.43;;;9.97;;
10847;SDS011;5477;48.806;9.154;2024-01-07T05:17:10;13.87;;;9.70;;
10847;SDS011;5477;48.806;9.154;2024-01-07T05:19:39;15.60;;;9.73;;
10847;SDS011;5477;48.806;9.154;2024-01-07T05:22:08;16.30;;;10.50;;
10847;SDS011;5477;48.806;9.154;2024-01-07T05:24:36;14.87;;;10.13;;
10847;SDS011;5477;48.806;9.154;2024-01-07T05:27:05;16.27;;;10.60;;
10847;SDS011;5477;48.806;9.154;2024-01-07T05:29:33;14.63;;;10.50;;
10847;SDS011;5477;48.806;9.154;2024-01-07T05:32:01;14.33;;;9.13;;
10847;SDS011;5477;48.806;9.154;2024-01-07T05:34:31;14.47;;;9.80;;
10847;SDS011;5477;48.806;9.154;2024-01-07T05:36:59;18.50;;;10.63;;
10847;SDS011;5477;48.806;9.154;2024-01-07T05:39:27;16.10;;;10.20;;
10847;SDS011;5477;48.806;9.154;2024-01-07T05:41:55;12.30;;;9.23;;
10847;SDS011;5477;48.806;9.154;2024-01-07T05:44:23;14.73;;;9.73;;
10847;SDS011;5477;48.806;9.154;2024-01-07T05:46:55;14.57;;;9.77;;
10847;SDS011;5477;48.806;9.154;2024-01-07T05:49:23;14.73;;;9.70;;
10847;SDS011;5477;48.806;9.154;2024-01-07T05:51:53;15.20;;;9.30;;
10847;SDS011;5477;48.806;9.154;2024-01-07T05:54:21;13.13;;;8.87;;
10847;SDS011;5477;48.806;9.154;2024-01-07T05:56:49;13.77;;;9.63;;
10847;SDS011;5477;48.806;9.154;2024-01-07T05:59:20;15.07;;;9.77;;
10847;SDS011;5477;48.806;9.154;2024-01-07T06:01:48;15.30;;;9.33;;
10847;SDS011;5477;48.806;9.154;2024-01-07T06:04:15;12.87;;;8.47;;
10847;SDS011;5477;48.806;9.154;2024-01-07T06:06:44;13.33;;;8.90;;
10847;SDS011;5477;48.806;9.154;2024-01-07T06:09:15;14.50;;;9.17;;
10847;SDS011;5477;48.806;9.154;2024-01-07T06:11:43;12.50;;;9.30;;
10847;SDS011;5477;48.806;9.154;2024-01-07T06:14:11;13.43;;;8.70;;
10847;SDS011;5477;48.806;9.154;2024-01-07T06:16:39;14.33;;;9.27;;
10847;SDS011;5477;48.806;9.154;2024-01-07T06:19:08;11.70;;;8.83;;
10847;SDS011;5477;48.806;9.154;2024-01-07T06:21:36;13.10;;;9.00;;
10847;SDS011;5477;48.806;9.154;2024-01-07T06:24:04;14.03;;;9.97;;
10847;SDS011;5477;48.806;9.154;2024-01-07T06:26:36;14.93;;;9.67;;
10847;SDS011;5477;48.806;9.154;2024-01-07T06:29:04;12.43;;;8.73;;
10847;SDS011;5477;48.806;9.154;2024-01-07T06:31:32;11.90;;;8.67;;
10847;SDS011;5477;48.806;9.154;2024-01-07T06:34:00;11.27;;;8.33;;
10847;SDS011;5477;48.806;9.154;2024-01-07T06:36:28;13.03;;;8.47;;
10847;SDS011;5477;48.806;9.154;2024-01-07T06:38:56;12.63;;;8.73;;
10847;SDS011;5477;48.806;9.154;2024-01-07T06:41:24;11.17;;;8.27;;
10847;SDS011;5477;48.806;9.154;2024-01-07T06:43:53;10.13;;;7.90;;
10847;SDS011;5477;48.806;9.154;2024-01-07T06:46:23;11.93;;;8.50;;
10847;SDS011;5477;48.806;9.154;2024-01-07T06:48:51;12.43;;;8.80;;
10847;SDS011;5477;48.806;9.154;2024-01-07T06:51:19;11.10;;;8.60;;
10847;SDS011;5477;48.806;9.154;2024-01-07T06:53:47;11.07;;;9.00;;
10847;SDS011;5477;48.806;9.154;2024-01-07T06:56:17;11.87;;;9.10;;
10847;SDS011;5477;48.806;9.154;2024-01-07T06:58:45;10.87;;;7.90;;
10847;SDS011;5477;48.806;9.154;2024-01-07T07:01:14;11.73;;;8.60;;
10847;SDS011;5477;48.806;9.154;2024-01-07T07:03:47;9.30;;;7.60;;
10847;SDS011;5477;48.806;9.154;2024-01-07T07:06:15;9.60;;;7.40;;
10847;SDS011;5477;48.806;9.154;2024-01-07T07:08:43;8.90;;;7.50;;
10847;SDS011;5477;48.806;9.154;2024-01-07T07:11:12;9.63;;;7.33;;
10847;SDS011;5477;48.806;9.154;2024-01-07T07:13:40;8.13;;;6.90;;
10847;SDS011;5477;48.806;9.154;2024-01-07T07:16:08;9.27;;;7.43;;
10847;SDS011;5477;48.806;9.154;2024-01-07T07:18:37;11.10;;;7.00;;
10847;SDS011;5477;48.806;9.154;2024-01-07T07:21:05;11.87;;;6.60;;
10847;SDS011;5477;48.806;9.154;2024-01-07T07:23:33;8.00;;;6.23;;
10847;SDS011;5477;48.806;9.154;2024-01-07T07:26:01;6.67;;;5.97;;
10847;SDS011;5477;48.806;9.154;2024-01-07T07:28:30;8.93;;;6.20;;
10847;SDS011;5477;48.806;9.154;2024-01-07T07:30:58;7.00;;;5.87;;
10847;SDS011;5477;48.806;9.154;2024-01-07T07:33:26;7.20;;;6.00;;
10847;SDS011;5477;48.806;9.154;2024-01-07T07:35:55;5.97;;;5.37;;
10847;SDS011;5477;48.806;9.154;2024-01-07T07:38:23;6.90;;;5.70;;
10847;SDS011;5477;48.806;9.154;2024-01-07T07:40:51;7.00;;;5.70;;
10847;SDS011;5477;48.806;9.154;2024-01-07T07:43:19;6.13;;;5.00;;
10847;SDS011;5477;48.806;9.154;2024-01-07T07:45:48;6.70;;;5.43;;
10847;SDS011;5477;48.806;9.154;2024-01-07T07:48:16;6.03;;;5.23;;
10847;SDS011;5477;48.806;9.154;2024-01-07T07:50:44;6.97;;;5.63;;
10847;SDS011;5477;48.806;9.154;2024-01-07T07:53:13;7.20;;;5.30;;
10847;SDS011;5477;48.806;9.154;2024-01-07T07:55:41;6.13;;;5.20;;
10847;SDS011;5477;48.806;9.154;2024-01-07T07:58:09;6.03;;;4.90;;
10847;SDS011;5477;48.806;9.154;2024-01-07T08:00:37;7.83;;;5.27;;
10847;SDS011;5477;48.806;9.154;2024-01-07T08:03:05;7.03;;;5.60;;
10847;SDS011;5477;48.806;9.154;2024-01-07T08:05:33;7.83;;;5.70;;
10847;SDS011;5477;48.806;9.154;2024-01-07T08:08:01;8.07;;;5.90;;
10847;SDS011;5477;48.806;9.154;2024-01-07T08:10:31;6.47;;;5.37;;
10847;SDS011;5477;48.806;9.154;2024-01-07T08:13:00;8.13;;;4.90;;
10847;SDS011;5477;48.806;9.154;2024-01-07T08:15:28;7.60;;;5.30;;
10847;SDS011;5477;48.806;9.154;2024-01-07T08:17:56;6.43;;;5.13;;
10847;SDS011;5477;48.806;9.154;2024-01-07T08:20:24;6.60;;;5.27;;
10847;SDS011;5477;48.806;9.154;2024-01-07T08:22:52;5.97;;;4.83;;
10847;SDS011;5477;48.806;9.154;2024-01-07T08:25:21;6.33;;;5.33;;
10847;SDS011;5477;48.806;9.154;2024-01-07T08:27:50;6.03;;;5.20;;
10847;SDS011;5477;48.806;9.154;2024-01-07T08:30:19;6.97;;;5.43;;
10847;SDS011;5477;48.806;9.154;2024-01-07T08:32:47;7.03;;;5.03;;
10847;SDS011;5477;48.806;9.154;2024-01-07T08:35:15;7.70;;;5.57;;
10847;SDS011;5477;48.806;9.154;2024-01-07T08:37:46;6.70;;;4.90;;
10847;SDS011;5477;48.806;9.154;2024-01-07T08:40:15;8.03;;;6.03;;
10847;SDS011;5477;48.806;9.154;2024-01-07T08:42:45;8.10;;;5.37;;
10847;SDS011;5477;48.806;9.154;2024-01-07T08:45:15;6.83;;;5.30;;
10847;SDS011;5477;48.806;9.154;2024-01-07T08:47:43;6.60;;;5.30;;
10847;SDS011;5477;48.806;9.154;2024-01-07T08:50:11;8.10;;;5.70;;
10847;SDS011;5477;48.806;9.154;2024-01-07T08:52:40;8.10;;;5.30;;
10847;SDS011;5477;48.806;9.154;2024-01-07T08:55:08;7.40;;;5.43;;
10847;SDS011;5477;48.806;9.154;2024-01-07T08:57:37;6.13;;;4.73;;
10847;SDS011;5477;48.806;9.154;2024-01-07T09:00:05;5.00;;;4.10;;
10847;SDS011;5477;48.806;9.154;2024-01-07T09:02:36;5.87;;;4.67;;
10847;SDS011;5477;48.806;9.154;2024-01-07T09:05:09;5.37;;;4.13;;
10847;SDS011;5477;48.806;9.154;2024-01-07T09:07:38;5.53;;;3.90;;
10847;SDS011;5477;48.806;9.154;2024-01-07T09:10:06;4.40;;;4.00;;
10847;SDS011;5477;48.806;9.154;2024-01-07T09:12:37;4.87;;;3.60;;
10847;SDS011;5477;48.806;9.154;2024-01-07T09:15:06;5.60;;;3.90;;
10847;SDS011;5477;48.806;9.154;2024-01-07T09:17:37;5.70;;;3.90;;
10847;SDS011;5477;48.806;9.154;2024-01-07T09:20:06;5.33;;;4.30;;
10847;SDS011;5477;48.806;9.154;2024-01-07T09:22:35;5.47;;;4.10;;
10847;SDS011;5477;48.806;9.154;2024-01-07T09:25:04;7.30;;;4.70;;
10847;SDS011;5477;48.806;9.154;2024-01-07T09:27:33;6.00;;;4.50;;
10847;SDS011;5477;48.806;9.154;2024-01-07T09:30:01;6.90;;;4.77;;
10847;SDS011;5477;48.806;9.154;2024-01-07T09:32:30;8.00;;;5.47;;
10847;SDS011;5477;48.806;9.154;2024-01-07T09:35:04;4.40;;;3.67;;
10847;SDS011;5477;48.806;9.154;2024-01-07T09:37:33;5.37;;;4.00;;
10847;SDS011;5477;48.806;9.154;2024-01-07T09:40:02;6.30;;;4.73;;
10847;SDS011;5477;48.806;9.154;2024-01-07T09:42:31;5.00;;;3.80;;
10847;SDS011;5477;48.806;9.154;2024-01-07T09:45:00;5.10;;;3.67;;
10847;SDS011;5477;48.806;9.154;2024-01-07T09:47:30;5.20;;;4.10;;
10847;SDS011;5477;48.806;9.154;2024-01-07T09:49:59;4.47;;;3.30;;
10847;SDS011;5477;48.806;9.154;2024-01-07T09:52:28;4.67;;;3.70;;
10847;SDS011;5477;48.806;9.154;2024-01-07T09:54:58;4.83;;;3.90;;
10847;SDS011;5477;48.806;9.154;2024-01-07T09:57:27;4.50;;;3.60;;
10847;SDS011;5477;48.806;9.154;2024-01-07T09:59:55;4.70;;;4.20;;
10847;SDS011;5477;48.806;9.154;2024-01-07T10:02:26;4.80;;;4.00;;
10847;SDS011;5477;48.806;9.154;2024-01-07T10:04:54;5.03;;;4.30;;
10847;SDS011;5477;48.806;9.154;2024-01-07T10:07:22;6.20;;;3.97;;
10847;SDS011;5477;48.806;9.154;2024-01-07T10:09:53;5.50;;;4.23;;
10847;SDS011;5477;48.806;9.154;2024-01-07T10:12:22;5.97;;;4.47;;
10847;SDS011;5477;48.806;9.154;2024-01-07T10:14:51;7.10;;;4.70;;
10847;SDS011;5477;48.806;9.154;2024-01-07T10:17:19;6.37;;;4.37;;
10847;SDS011;5477;48.806;9.154;2024-01-07T10:19:50;7.33;;;5.67;;
10847;SDS011;5477;48.806;9.154;2024-01-07T10:22:18;6.77;;;5.00;;
10847;SDS011;5477;48.806;9.154;2024-01-07T10:24:46;7.53;;;4.63;;
10847;SDS011;5477;48.806;9.154;2024-01-07T10:27:16;6.03;;;4.70;;
10847;SDS011;5477;48.806;9.154;2024-01-07T10:29:46;6.13;;;4.50;;
10847;SDS011;5477;48.806;9.154;2024-01-07T10:32:17;4.87;;;4.20;;
10847;SDS011;5477;48.806;9.154;2024-01-07T10:34:47;7.57;;;4.40;;
10847;SDS011;5477;48.806;9.154;2024-01-07T10:37:16;6.43;;;5.00;;
10847;SDS011;5477;48.806;9.154;2024-01-07T10:39:44;5.80;;;4.70;;
10847;SDS011;5477;48.806;9.154;2024-01-07T10:42:12;7.20;;;4.90;;
10847;SDS011;5477;48.806;9.154;2024-01-07T10:44:42;6.27;;;4.73;;
10847;SDS011;5477;48.806;9.154;2024-01-07T10:47:10;5.83;;;4.97;;
10847;SDS011;5477;48.806;9.154;2024-01-07T10:49:40;5.77;;;4.83;;
10847;SDS011;5477;48.806;9.154;2024-01-07T10:52:14;6.33;;;5.00;;
10847;SDS011;5477;48.806;9.154;2024-01-07T10:54:44;6.13;;;4.90;;
10847;SDS011;5477;48.806;9.154;2024-01-07T10:57:17;6.43;;;4.90;;
10847;SDS011;5477;48.806;9.154;2024-01-07T10:59:53;8.83;;;6.20;;
10847;SDS011;5477;48.806;9.154;2024-01-07T11:02:22;6.00;;;4.63;;
10847;SDS011;5477;48.806;9.154;2024-01-07T11:04:54;5.77;;;5.00;;
10847;SDS011;5477;48.806;9.154;2024-01-07T11:07:32;5.77;;;4.83;;
10847;SDS011;5477;48.806;9.154;2024-01-07T11:10:05;8.67;;;5.03;;
10847;SDS011;5477;48.806;9.154;2024-01-07T11:12:38;7.27;;;5.03;;
10847;SDS011;5477;48.806;9.154;2024-01-07T11:15:07;9.13;;;5.03;;
10847;SDS011;5477;48.806;9.154;2024-01-07T11:17:39;5.93;;;4.60;;
10847;SDS011;5477;48.806;9.154;2024-01-07T11:20:12;6.43;;;4.63;;
10847;SDS011;5477;48.806;9.154;2024-01-07T11:22:45;8.03;;;5.40;;
10847;SDS011;5477;48.806;9.154;2024-01-07T11:25:28;7.27;;;5.53;;
10847;SDS011;5477;48.806;9.154;2024-01-07T11:27:58;6.13;;;5.10;;
10847;SDS011;5477;48.806;9.154;2024-01-07T11:30:29;8.13;;;6.43;;
10847;SDS011;5477;48.806;9.154;2024-01-07T11:33:07;7.73;;;5.90;;
10847;SDS011;5477;48.806;9.154;2024-01-07T11:35:55;7.60;;;6.43;;
10847;SDS011;5477;48.806;9.154;2024-01-07T11:38:24;10.20;;;7.93;;
10847;SDS011;5477;48.806;9.154;2024-01-07T11:40:53;5.90;;;4.47;;
10847;SDS011;5477;48.806;9.154;2024-01-07T11:43:23;5.47;;;4.23;;
10847;SDS011;5477;48.806;9.154;2024-01-07T11:45:54;9.40;;;6.27;;
10847;SDS011;5477;48.806;9.154;2024-01-07T11:48:22;7.17;;;5.77;;
10847;SDS011;5477;48.806;9.154;2024-01-07T11:50:50;6.60;;;5.20;;
10847;SDS011;5477;48.806;9.154;2024-01-07T11:53:21;5.23;;;4.73;;
10847;SDS011;5477;48.806;9.154;2024-01-07T11:55:49;6.70;;;5.00;;
10847;SDS011;5477;48.806;9.154;2024-01-07T11:58:18;6.93;;;5.43;;
10847;SDS011;5477;48.806;9.154;2024-01-07T12:00:47;5.23;;;4.70;;
10847;SDS011;5477;48.806;9.154;2024-01-07T12:03:17;6.27;;;4.83;;
10847;SDS011;5477;48.806;9.154;2024-01-07T12:05:45;7.37;;;4.83;;
10847;SDS011;5477;48.806;9.154;2024-01-07T12:08:14;6.43;;;5.30;;
10847;SDS011;5477;48.806;9.154;2024-01-07T12:10:42;5.87;;;5.27;;
10847;SDS011;5477;48.806;9.154;2024-01-07T12:13:11;5.80;;;4.97;;
10847;SDS011;5477;48.806;9.154;2024-01-07T12:15:39;6.17;;;5.23;;
10847;SDS011;5477;48.806;9.154;2024-01-07T12:18:08;6.47;;;4.83;;
10847;SDS011;5477;48.806;9.154;2024-01-07T12:20:39;6.97;;;5.10;;
10847;SDS011;5477;48.806;9.154;2024-01-07T12:23:07;8.10;;;5.70;;
10847;SDS011;5477;48.806;9.154;2024-01-07T12:25:35;6.93;;;5.50;;
10847;SDS011;5477;48.806;9.154;2024-01-07T12:28:06;7.50;;;5.57;;
10847;SDS011;5477;48.806;9.154;2024-01-07T12:30:35;7.80;;;6.10;;
10847;SDS011;5477;48.806;9.154;2024-01-07T12:33:05;7.17;;;5.00;;
10847;SDS011;5477;48.806;9.154;2024-01-07T12:35:33;7.00;;;5.27;;
10847;SDS011;5477;48.806;9.154;2024-01-07T12:38:04;7.37;;;5.87;;
10847;SDS011;5477;48.806;9.154;2024-01-07T12:40:32;10.20;;;7.40;;
10847;SDS011;5477;48.806;9.154;2024-01-07T12:43:01;10.13;;;6.93;;
10847;SDS011;5477;48.806;9.154;2024-01-07T12:45:29;10.60;;;7.60;;
10847;SDS011;5477;48.806;9.154;2024-01-07T12:47:57;7.07;;;6.17;;
10847;SDS011;5477;48.806;9.154;2024-01-07T12:50:28;8.70;;;6.50;;
10847;SDS011;5477;48.806;9.154;2024-01-07T12:52:58;8.33;;;6.63;;
10847;SDS011;5477;48.806;9.154;2024-01-07T12:55:27;7.30;;;6.03;;
10847;SDS011;5477;48.806;9.154;2024-01-07T12:57:56;9.00;;;6.33;;
10847;SDS011;5477;48.806;9.154;2024-01-07T13:00:24;7.33;;;5.73;;
10847;SDS011;5477;48.806;9.154;2024-01-07T13:02:54;11.47;;;7.87;;
10847;SDS011;5477;48.806;9.154;2024-01-07T13:05:26;12.70;;;8.67;;
10847;SDS011;5477;48.806;9.154;2024-01-07T13:07:55;9.63;;;6.87;;
10847;SDS011;5477;48.806;9.154;2024-01-07T13:10:23;10.43;;;6.90;;
10847;SDS011;5477;48.806;9.154;2024-01-07T13:12:53;9.73;;;6.93;;
10847;SDS011;5477;48.806;9.154;2024-01-07T13:15:33;9.03;;;6.97;;
10847;SDS011;5477;48.806;9.154;2024-01-07T13:18:01;8.87;;;6.37;;
10847;SDS011;5477;48.806;9.154;2024-01-07T13:20:29;10.43;;;7.17;;
10847;SDS011;5477;48.806;9.154;2024-01-07T13:22:57;8.43;;;6.97;;
10847;SDS011;5477;48.806;9.154;2024-01-07T13:25:26;8.83;;;7.07;;
10847;SDS011;5477;48.806;9.154;2024-01-07T13:27:56;10.00;;;7.40;;
10847;SDS011;5477;48.806;9.154;2024-01-07T13:30:24;8.50;;;6.80;;
10847;SDS011;5477;48.806;9.154;2024-01-07T13:32:52;9.53;;;8.10;;
10847;SDS011;5477;48.806;9.154;2024-01-07T13:35:24;8.97;;;6.87;;
10847;SDS011;5477;48.806;9.154;2024-01-07T13:37:53;19.63;;;10.67;;
10847;SDS011;5477;48.806;9.154;2024-01-07T13:40:20;11.03;;;7.40;;
10847;SDS011;5477;48.806;9.154;2024-01-07T13:42:49;7.83;;;6.27;;
10847;SDS011;5477;48.806;9.154;2024-01-07T13:45:19;9.00;;;6.77;;
10847;SDS011;5477;48.806;9.154;2024-01-07T13:47:49;9.60;;;6.93;;
10847;SDS011;5477;48.806;9.154;2024-01-07T13:50:17;12.20;;;7.57;;
10847;SDS011;5477;48.806;9.154;2024-01-07T13:52:45;9.30;;;7.37;;
10847;SDS011;5477;48.806;9.154;2024-01-07T13:55:14;9.93;;;7.43;;
10847;SDS011;5477;48.806;9.154;2024-01-07T13:57:42;14.27;;;10.13;;
10847;SDS011;5477;48.806;9.154;2024-01-07T14:00:11;15.53;;;8.83;;
10847;SDS011;5477;48.806;9.154;2024-01-07T14:02:46;8.47;;;6.73;;
10847;SDS011;5477;48.806;9.154;2024-01-07T14:05:15;8.77;;;7.23;;
10847;SDS011;5477;48.806;9.154;2024-01-07T14:07:46;12.80;;;8.30;;
10847;SDS011;5477;48.806;9.154;2024-01-07T14:10:14;11.67;;;7.73;;
10847;SDS011;5477;48.806;9.154;2024-01-07T14:12:45;10.27;;;7.87;;
10847;SDS011;5477;48.806;9.154;2024-01-07T14:15:14;9.47;;;7.83;;
10847;SDS011;5477;48.806;9.154;2024-01-07T14:17:43;9.93;;;7.43;;
10847;SDS011;5477;48.806;9.154;2024-01-07T14:20:13;10.67;;;7.77;;
10847;SDS011;5477;48.806;9.154;2024-01-07T14:22:41;9.77;;;6.73;;
10847;SDS011;5477;48.806;9.154;2024-01-07T14:25:09;9.67;;;7.40;;
10847;SDS011;5477;48.806;9.154;2024-01-07T14:27:37;9.63;;;7.27;;
10847;SDS011;5477;48.806;9.154;2024-01-07T14:30:05;9.93;;;7.10;;
10847;SDS011;5477;48.806;9.154;2024-01-07T14:32:34;8.87;;;7.53;;
10847;SDS011;5477;48.806;9.154;2024-01-07T14:35:05;9.33;;;7.47;;
10847;SDS011;5477;48.806;9.154;2024-01-07T14:37:33;11.93;;;8.47;;
10847;SDS011;5477;48.806;9.154;2024-01-07T14:40:02;12.03;;;8.23;;
10847;SDS011;5477;48.806;9.154;2024-01-07T14:42:32;11.33;;;8.43;;
10847;SDS011;5477;48.806;9.154;2024-01-07T14:45:00;10.20;;;8.10;;
10847;SDS011;5477;48.806;9.154;2024-01-07T14:47:28;11.50;;;8.33;;
10847;SDS011;5477;48.806;9.154;2024-01-07T14:49:56;13.63;;;8.90;;
10847;SDS011;5477;48.806;9.154;2024-01-07T14:52:25;13.13;;;7.87;;
10847;SDS011;5477;48.806;9.154;2024-01-07T14:54:53;11.00;;;8.33;;
10847;SDS011;5477;48.806;9.154;2024-01-07T14:57:22;10.00;;;7.60;;
10847;SDS011;5477;48.806;9.154;2024-01-07T14:59:50;10.97;;;8.17;;